sensor_id;sensor_type;location;lat;lon;timestamp;pressure;altitude;pressure_sealevel;temperature;humidity
57068;BME280;43391;47.448;18.904;2023-10-19T00:01:13;99221.22;;;7.70;88.36
57068;BME280;43391;47.448;18.904;2023-10-19T00:03:40;99220.22;;;7.73;87.95
57068;BME280;43391;47.448;18.904;2023-10-19T00:06:05;99217.59;;;7.75;87.94
57068;BME280;43391;47.448;18.904;2023-10-19T00:08:31;99215.75;;;7.77;88.30
57068;BME280;43391;47.448;18.904;2023-10-19T00:11:06;99208.91;;;7.76;88.37
57068;BME280;43391;47.448;18.904;2023-10-19T00:13:35;99208.16;;;7.74;88.76
57068;BME280;43391;47.448;18.904;2023-10-19T00:16:01;99205.59;;;7.74;88.84
57068;BME280;43391;47.448;18.904;2023-10-19T00:18:35;99197.84;;;7.74;88.89
57068;BME280;43391;47.448;18.904;2023-10-19T00:21:00;99196.22;;;7.71;88.90
57068;BME280;43391;47.448;18.904;2023-10-19T00:23:44;99190.91;;;7.74;88.87
57068;BME280;43391;47.448;18.904;2023-10-19T00:26:12;99185.88;;;7.71;89.00
57068;BME280;43391;47.448;18.904;2023-10-19T00:28:45;99177.34;;;7.69;89.11
57068;BME280;43391;47.448;18.904;2023-10-19T00:31:11;99185.09;;;7.69;89.23
57068;BME280;43391;47.448;18.904;2023-10-19T00:33:37;99183.44;;;7.68;89.53
57068;BME280;43391;47.448;18.904;2023-10-19T00:36:06;99182.31;;;7.74;89.84
57068;BME280;43391;47.448;18.904;2023-10-19T00:38:33;99183.16;;;7.74;89.73
57068;BME280;43391;47.448;18.904;2023-10-19T00:41:01;99180.50;;;7.76;90.02
57068;BME280;43391;47.448;18.904;2023-10-19T00:43:35;99177.00;;;7.77;89.99
57068;BME280;43391;47.448;18.904;2023-10-19T00:46:13;99169.34;;;7.75;89.98
57068;BME280;43391;47.448;18.904;2023-10-19T00:48:51;99159.84;;;7.76;90.27
57068;BME280;43391;47.448;18.904;2023-10-19T00:51:21;99152.94;;;7.76;90.43
57068;BME280;43391;47.448;18.904;2023-10-19T00:53:56;99153.75;;;7.77;90.74
57068;BME280;43391;47.448;18.904;2023-10-19T00:56:23;99152.94;;;7.76;91.04
57068;BME280;43391;47.448;18.904;2023-10-19T00:58:51;99148.69;;;7.75;91.08
57068;BME280;43391;47.448;18.904;2023-10-19T01:01:25;99149.38;;;7.79;91.67
57068;BME280;43391;47.448;18.904;2023-10-19T01:03:53;99153.56;;;7.81;92.93
57068;BME280;43391;47.448;18.904;2023-10-19T01:06:21;99153.63;;;7.80;95.22
57068;BME280;43391;47.448;18.904;2023-10-19T01:08:46;99145.19;;;7.76;96.57
57068;BME280;43391;47.448;18.904;2023-10-19T01:11:12;99148.75;;;7.74;98.07
57068;BME280;43391;47.448;18.904;2023-10-19T01:13:40;99145.59;;;7.67;98.98
57068;BME280;43391;47.448;18.904;2023-10-19T01:16:13;99147.50;;;7.63;100.00
57068;BME280;43391;47.448;18.904;2023-10-19T01:18:46;99145.19;;;7.57;100.00
57068;BME280;43391;47.448;18.904;2023-10-19T01:21:11;99154.03;;;7.51;100.00
57068;BME280;43391;47.448;18.904;2023-10-19T01:23:36;99148.41;;;7.43;100.00
57068;BME280;43391;47.448;18.904;2023-10-19T01:26:04;99122.63;;;7.41;100.00
57068;BME280;43391;47.448;18.904;2023-10-19T01:28:36;99119.34;;;7.38;100.00
57068;BME280;43391;47.448;18.904;2023-10-19T01:33:33;99102.66;;;7.26;100.00
57068;BME280;43391;47.448;18.904;2023-10-19T01:36:00;99096.88;;;7.21;100.00
57068;BME280;43391;47.448;18.904;2023-10-19T01:38:39;99105.00;;;7.11;100.00
57068;BME280;43391;47.448;18.904;2023-10-19T01:41:06;99100.13;;;7.05;100.00
57068;BME280;43391;47.448;18.904;2023-10-19T01:43:44;99095.31;;;6.97;100.00
57068;BME280;43391;47.448;18.904;2023-10-19T01:46:10;99089.56;;;6.90;100.00
57068;BME280;43391;47.448;18.904;2023-10-19T01:48:42;99095.81;;;6.85;100.00
57068;BME280;43391;47.448;18.904;2023-10-19T01:51:08;99095.25;;;6.78;100.00
57068;BME280;43391;47.448;18.904;2023-10-19T01:53:36;99082.63;;;6.72;100.00
57068;BME280;43391;47.448;18.904;2023-10-19T01:56:04;99084.63;;;6.65;100.00
57068;BME280;43391;47.448;18.904;2023-10-19T01:58:30;99080.44;;;6.62;100.00
57068;BME280;43391;47.448;18.904;2023-10-19T02:00:55;99087.59;;;6.56;100.00
57068;BME280;43391;47.448;18.904;2023-10-19T02:03:25;99076.56;;;6.52;100.00
57068;BME280;43391;47.448;18.904;2023-10-19T02:05:58;99072.44;;;6.48;100.00
57068;BME280;43391;47.448;18.904;2023-10-19T02:08:24;99071.47;;;6.50;100.00
57068;BME280;43391;47.448;18.904;2023-10-19T02:10:51;99068.00;;;6.51;100.00
57068;BME280;43391;47.448;18.904;2023-10-19T02:13:16;99066.31;;;6.50;100.00
57068;BME280;43391;47.448;18.904;2023-10-19T02:15:48;99076.63;;;6.50;100.00
57068;BME280;43391;47.448;18.904;2023-10-19T02:18:15;99063.94;;;6.46;100.00
57068;BME280;43391;47.448;18.904;2023-10-19T02:20:42;99063.84;;;6.47;100.00
57068;BME280;43391;47.448;18.904;2023-10-19T02:23:13;99058.63;;;6.49;100.00
57068;BME280;43391;47.448;18.904;2023-10-19T02:25:38;99060.25;;;6.51;100.00
57068;BME280;43391;47.448;18.904;2023-10-19T02:28:04;99055.03;;;6.53;100.00
57068;BME280;43391;47.448;18.904;2023-10-19T02:30:32;99051.69;;;6.51;100.00
57068;BME280;43391;47.448;18.904;2023-10-19T02:32:59;99047.41;;;6.50;100.00
57068;BME280;43391;47.448;18.904;2023-10-19T02:35:25;99039.78;;;6.48;100.00
57068;BME280;43391;47.448;18.904;2023-10-19T02:37:52;99027.75;;;6.47;100.00
57068;BME280;43391;47.448;18.904;2023-10-19T02:40:17;99022.59;;;6.47;100.00
57068;BME280;43391;47.448;18.904;2023-10-19T02:42:48;99022.59;;;6.47;100.00
57068;BME280;43391;47.448;18.904;2023-10-19T02:45:15;99021.78;;;6.47;100.00
57068;BME280;43391;47.448;18.904;2023-10-19T02:47:44;99019.16;;;6.48;100.00
57068;BME280;43391;47.448;18.904;2023-10-19T02:50:10;99014.63;;;6.54;100.00
57068;BME280;43391;47.448;18.904;2023-10-19T02:52:48;99013.72;;;6.55;100.00
57068;BME280;43391;47.448;18.904;2023-10-19T02:55:14;99012.88;;;6.54;100.00
57068;BME280;43391;47.448;18.904;2023-10-19T02:57:41;99007.72;;;6.54;100.00
57068;BME280;43391;47.448;18.904;2023-10-19T03:00:07;99000.13;;;6.51;100.00
57068;BME280;43391;47.448;18.904;2023-10-19T03:02:37;98999.28;;;6.50;100.00
57068;BME280;43391;47.448;18.904;2023-10-19T03:05:03;98998.25;;;6.55;100.00
57068;BME280;43391;47.448;18.904;2023-10-19T03:07:37;98997.22;;;6.59;100.00
57068;BME280;43391;47.448;18.904;2023-10-19T03:10:04;98997.22;;;6.59;100.00
57068;BME280;43391;47.448;18.904;2023-10-19T03:12:30;98988.56;;;6.60;100.00
57068;BME280;43391;47.448;18.904;2023-10-19T03:14:55;98979.06;;;6.60;100.00
57068;BME280;43391;47.448;18.904;2023-10-19T03:17:21;98975.72;;;6.58;100.00
57068;BME280;43391;47.448;18.904;2023-10-19T03:19:46;98972.47;;;6.55;100.00
57068;BME280;43391;47.448;18.904;2023-10-19T03:22:11;98969.81;;;6.56;100.00
57068;BME280;43391;47.448;18.904;2023-10-19T03:24:36;98965.53;;;6.55;100.00
57068;BME280;43391;47.448;18.904;2023-10-19T03:27:09;98962.16;;;6.55;100.00
57068;BME280;43391;47.448;18.904;2023-10-19T03:29:42;98958.03;;;6.50;100.00
57068;BME280;43391;47.448;18.904;2023-10-19T03:32:12;98952.16;;;6.47;100.00
57068;BME280;43391;47.448;18.904;2023-10-19T03:34:38;98943.66;;;6.45;100.00
57068;BME280;43391;47.448;18.904;2023-10-19T03:37:03;98939.22;;;6.48;100.00
57068;BME280;43391;47.448;18.904;2023-10-19T03:39:33;98947.06;;;6.45;100.00
57068;BME280;43391;47.448;18.904;2023-10-19T03:42:03;98943.53;;;6.48;100.00
57068;BME280;43391;47.448;18.904;2023-10-19T03:44:31;98948.03;;;6.43;100.00
57068;BME280;43391;47.448;18.904;2023-10-19T03:47:08;98948.03;;;6.43;100.00
57068;BME280;43391;47.448;18.904;2023-10-19T03:49:37;98951.53;;;6.42;100.00
57068;BME280;43391;47.448;18.904;2023-10-19T03:52:04;98950.41;;;6.47;100.00
57068;BME280;43391;47.448;18.904;2023-10-19T03:54:35;98942.56;;;6.50;100.00
57068;BME280;43391;47.448;18.904;2023-10-19T03:57:04;98930.56;;;6.49;100.00
57068;BME280;43391;47.448;18.904;2023-10-19T03:59:32;98931.47;;;6.48;100.00
57068;BME280;43391;47.448;18.904;2023-10-19T04:02:00;98925.13;;;6.36;100.00
57068;BME280;43391;47.448;18.904;2023-10-19T04:04:26;98911.31;;;6.37;100.00
57068;BME280;43391;47.448;18.904;2023-10-19T04:06:51;98910.06;;;6.46;100.00
57068;BME280;43391;47.448;18.904;2023-10-19T04:09:23;98905.94;;;6.42;100.00
57068;BME280;43391;47.448;18.904;2023-10-19T04:11:48;98899.06;;;6.43;100.00
57068;BME280;43391;47.448;18.904;2023-10-19T04:14:16;98893.97;;;6.41;100.00
57068;BME280;43391;47.448;18.904;2023-10-19T04:16:42;98894.88;;;6.40;100.00
57068;BME280;43391;47.448;18.904;2023-10-19T04:19:11;98884.69;;;6.37;100.00
57068;BME280;43391;47.448;18.904;2023-10-19T04:21:37;98889.84;;;6.37;100.00
57068;BME280;43391;47.448;18.904;2023-10-19T04:24:07;98876.06;;;6.38;100.00
57068;BME280;43391;47.448;18.904;2023-10-19T04:26:33;98873.56;;;6.36;100.00
57068;BME280;43391;47.448;18.904;2023-10-19T04:29:02;98868.25;;;6.40;100.00
57068;BME280;43391;47.448;18.904;2023-10-19T04:31:34;98863.94;;;6.40;100.00
57068;BME280;43391;47.448;18.904;2023-10-19T04:34:02;98864.78;;;6.41;100.00
57068;BME280;43391;47.448;18.904;2023-10-19T04:36:32;98866.56;;;6.38;100.00
57068;BME280;43391;47.448;18.904;2023-10-19T04:38:58;98859.75;;;6.37;100.00
57068;BME280;43391;47.448;18.904;2023-10-19T04:41:25;98871.66;;;6.40;100.00
57068;BME280;43391;47.448;18.904;2023-10-19T04:43:52;98864.69;;;6.42;100.00
57068;BME280;43391;47.448;18.904;2023-10-19T04:46:17;98863.66;;;6.46;100.00
57068;BME280;43391;47.448;18.904;2023-10-19T04:48:44;98858.56;;;6.45;100.00
57068;BME280;43391;47.448;18.904;2023-10-19T04:51:10;98843.88;;;6.47;100.00
57068;BME280;43391;47.448;18.904;2023-10-19T04:53:36;98856.06;;;6.43;100.00
57068;BME280;43391;47.448;18.904;2023-10-19T04:56:02;98851.75;;;6.44;100.00
57068;BME280;43391;47.448;18.904;2023-10-19T04:58:28;98856.91;;;6.44;100.00
57068;BME280;43391;47.448;18.904;2023-10-19T05:00:54;98847.44;;;6.44;100.00
57068;BME280;43391;47.448;18.904;2023-10-19T05:03:19;98847.38;;;6.46;100.00
57068;BME280;43391;47.448;18.904;2023-10-19T05:05:44;98848.19;;;6.46;100.00
57068;BME280;43391;47.448;18.904;2023-10-19T05:08:10;98843.81;;;6.48;100.00
57068;BME280;43391;47.448;18.904;2023-10-19T05:10:35;98845.41;;;6.51;100.00
57068;BME280;43391;47.448;18.904;2023-10-19T05:13:00;98843.66;;;6.51;100.00
57068;BME280;43391;47.448;18.904;2023-10-19T05:15:25;98850.56;;;6.51;100.00
57068;BME280;43391;47.448;18.904;2023-10-19T05:17:51;98840.16;;;6.53;100.00
57068;BME280;43391;47.448;18.904;2023-10-19T05:20:16;98846.91;;;6.55;100.00
57068;BME280;43391;47.448;18.904;2023-10-19T05:22:41;98853.91;;;6.53;100.00
57068;BME280;43391;47.448;18.904;2023-10-19T05:25:06;98854.75;;;6.54;100.00
57068;BME280;43391;47.448;18.904;2023-10-19T05:27:33;98848.53;;;6.58;100.00
57068;BME280;43391;47.448;18.904;2023-10-19T05:29:58;98842.38;;;6.60;100.00
57068;BME280;43391;47.448;18.904;2023-10-19T05:32:23;98844.91;;;6.62;100.00
57068;BME280;43391;47.448;18.904;2023-10-19T05:34:49;98846.72;;;6.60;100.00
57068;BME280;43391;47.448;18.904;2023-10-19T05:37:14;98853.50;;;6.62;100.00
57068;BME280;43391;47.448;18.904;2023-10-19T05:39:41;98850.75;;;6.65;100.00
57068;BME280;43391;47.448;18.904;2023-10-19T05:42:07;98847.28;;;6.67;100.00
57068;BME280;43391;47.448;18.904;2023-10-19T05:44:32;98840.94;;;6.74;100.00
57068;BME280;43391;47.448;18.904;2023-10-19T05:46:57;98839.94;;;6.76;100.00
57068;BME280;43391;47.448;18.904;2023-10-19T05:49:23;98836.53;;;6.76;100.00
57068;BME280;43391;47.448;18.904;2023-10-19T05:51:49;98839.25;;;6.73;100.00
57068;BME280;43391;47.448;18.904;2023-10-19T05:54:14;98831.66;;;6.70;100.00
57068;BME280;43391;47.448;18.904;2023-10-19T05:56:39;98838.13;;;6.78;100.00
57068;BME280;43391;47.448;18.904;2023-10-19T05:59:05;98841.19;;;6.87;100.00
57068;BME280;43391;47.448;18.904;2023-10-19T06:01:31;98845.06;;;6.96;100.00
57068;BME280;43391;47.448;18.904;2023-10-19T06:03:57;98849.13;;;7.01;100.00
57068;BME280;43391;47.448;18.904;2023-10-19T06:06:22;98839.69;;;7.00;100.00
57068;BME280;43391;47.448;18.904;2023-10-19T06:08:47;98843.03;;;7.02;100.00
57068;BME280;43391;47.448;18.904;2023-10-19T06:11:13;98843.78;;;7.04;100.00
57068;BME280;43391;47.448;18.904;2023-10-19T06:13:38;98830.94;;;7.03;100.00
57068;BME280;43391;47.448;18.904;2023-10-19T06:16:03;98832.47;;;6.89;100.00
57068;BME280;43391;47.448;18.904;2023-10-19T06:18:29;98831.00;;;6.84;100.00
57068;BME280;43391;47.448;18.904;2023-10-19T06:20:54;98830.19;;;6.83;100.00
57068;BME280;43391;47.448;18.904;2023-10-19T06:23:20;98826.75;;;6.83;100.00
57068;BME280;43391;47.448;18.904;2023-10-19T06:25:45;98819.75;;;6.85;100.00
57068;BME280;43391;47.448;18.904;2023-10-19T06:28:11;98818.88;;;6.86;100.00
57068;BME280;43391;47.448;18.904;2023-10-19T06:30:37;98817.97;;;6.87;100.00
57068;BME280;43391;47.448;18.904;2023-10-19T06:33:02;98814.47;;;6.88;100.00
57068;BME280;43391;47.448;18.904;2023-10-19T06:35:31;98812.63;;;6.90;100.00
57068;BME280;43391;47.448;18.904;2023-10-19T06:37:56;98814.34;;;6.91;100.00
57068;BME280;43391;47.448;18.904;2023-10-19T06:40:22;98820.19;;;6.95;100.00
57068;BME280;43391;47.448;18.904;2023-10-19T06:42:48;98817.81;;;6.90;100.00
57068;BME280;43391;47.448;18.904;2023-10-19T06:45:14;98800.44;;;6.94;100.00
57068;BME280;43391;47.448;18.904;2023-10-19T06:47:43;98810.09;;;7.08;100.00
57068;BME280;43391;47.448;18.904;2023-10-19T06:50:13;98812.44;;;6.95;100.00
57068;BME280;43391;47.448;18.904;2023-10-19T06:52:41;98814.16;;;6.94;100.00
57068;BME280;43391;47.448;18.904;2023-10-19T06:55:07;98809.50;;;7.02;100.00
57068;BME280;43391;47.448;18.904;2023-10-19T06:57:39;98815.19;;;7.09;100.00
57068;BME280;43391;47.448;18.904;2023-10-19T07:00:04;98805.63;;;7.11;100.00
57068;BME280;43391;47.448;18.904;2023-10-19T07:02:39;98801.06;;;7.16;100.00
57068;BME280;43391;47.448;18.904;2023-10-19T07:05:04;98801.06;;;7.16;100.00
57068;BME280;43391;47.448;18.904;2023-10-19T07:07:29;98801.13;;;7.15;100.00
57068;BME280;43391;47.448;18.904;2023-10-19T07:09:55;98797.56;;;7.17;100.00
57068;BME280;43391;47.448;18.904;2023-10-19T07:12:20;98787.09;;;7.21;100.00
57068;BME280;43391;47.448;18.904;2023-10-19T07:14:46;98787.78;;;7.24;100.00
57068;BME280;43391;47.448;18.904;2023-10-19T07:17:12;98792.72;;;7.29;100.00
57068;BME280;43391;47.448;18.904;2023-10-19T07:19:37;98791.97;;;7.27;100.00
57068;BME280;43391;47.448;18.904;2023-10-19T07:22:06;98791.97;;;7.27;100.00
57068;BME280;43391;47.448;18.904;2023-10-19T07:24:34;98790.97;;;7.29;100.00
57068;BME280;43391;47.448;18.904;2023-10-19T07:27:01;98780.72;;;7.28;100.00
57068;BME280;43391;47.448;18.904;2023-10-19T07:29:30;98791.22;;;7.25;100.00
57068;BME280;43391;47.448;18.904;2023-10-19T07:31:56;98776.75;;;7.38;100.00
57068;BME280;43391;47.448;18.904;2023-10-19T07:34:23;98776.75;;;7.38;100.00
57068;BME280;43391;47.448;18.904;2023-10-19T07:36:52;98773.97;;;7.43;100.00
57068;BME280;43391;47.448;18.904;2023-10-19T07:39:19;98778.22;;;7.44;100.00
57068;BME280;43391;47.448;18.904;2023-10-19T07:41:44;98766.72;;;7.50;100.00
57068;BME280;43391;47.448;18.904;2023-10-19T07:44:11;98761.34;;;7.54;100.00
57068;BME280;43391;47.448;18.904;2023-10-19T07:46:37;98757.84;;;7.55;100.00
57068;BME280;43391;47.448;18.904;2023-10-19T07:49:02;98742.41;;;7.54;100.00
57068;BME280;43391;47.448;18.904;2023-10-19T07:51:28;98742.94;;;7.61;100.00
57068;BME280;43391;47.448;18.904;2023-10-19T07:53:53;98750.09;;;7.55;100.00
57068;BME280;43391;47.448;18.904;2023-10-19T07:56:18;98741.94;;;7.63;100.00
57068;BME280;43391;47.448;18.904;2023-10-19T07:58:44;98738.38;;;7.66;100.00
57068;BME280;43391;47.448;18.904;2023-10-19T08:01:09;98732.88;;;7.72;100.00
57068;BME280;43391;47.448;18.904;2023-10-19T08:03:36;98732.47;;;7.80;100.00
57068;BME280;43391;47.448;18.904;2023-10-19T08:06:01;98732.81;;;8.06;100.00
57068;BME280;43391;47.448;18.904;2023-10-19T08:08:27;98734.72;;;8.18;100.00
57068;BME280;43391;47.448;18.904;2023-10-19T08:10:59;98731.06;;;8.22;100.00
57068;BME280;43391;47.448;18.904;2023-10-19T08:13:24;98738.44;;;8.14;100.00
57068;BME280;43391;47.448;18.904;2023-10-19T08:15:51;98737.44;;;8.17;100.00
57068;BME280;43391;47.448;18.904;2023-10-19T08:18:16;98736.25;;;8.38;100.00
57068;BME280;43391;47.448;18.904;2023-10-19T08:20:43;98745.59;;;8.41;100.00
57068;BME280;43391;47.448;18.904;2023-10-19T08:23:10;98736.97;;;8.41;100.00
57068;BME280;43391;47.448;18.904;2023-10-19T08:25:36;98734.41;;;8.41;100.00
57068;BME280;43391;47.448;18.904;2023-10-19T08:28:01;98726.91;;;8.36;100.00
57068;BME280;43391;47.448;18.904;2023-10-19T08:30:26;98727.13;;;8.31;100.00
57068;BME280;43391;47.448;18.904;2023-10-19T08:32:52;98716.13;;;8.60;100.00
57068;BME280;43391;47.448;18.904;2023-10-19T08:35:17;98722.06;;;8.62;100.00
57068;BME280;43391;47.448;18.904;2023-10-19T08:37:49;98718.53;;;8.63;100.00
57068;BME280;43391;47.448;18.904;2023-10-19T08:40:14;98708.59;;;8.71;100.00
57068;BME280;43391;47.448;18.904;2023-10-19T08:42:43;98708.34;;;8.76;100.00
57068;BME280;43391;47.448;18.904;2023-10-19T08:45:10;98704.09;;;8.75;100.00
57068;BME280;43391;47.448;18.904;2023-10-19T08:47:40;98695.53;;;8.89;100.00
57068;BME280;43391;47.448;18.904;2023-10-19T08:50:06;98697.84;;;8.94;100.00
57068;BME280;43391;47.448;18.904;2023-10-19T08:52:32;98689.72;;;9.00;100.00
57068;BME280;43391;47.448;18.904;2023-10-19T08:54:58;98681.94;;;9.00;100.00
57068;BME280;43391;47.448;18.904;2023-10-19T08:57:24;98686.41;;;9.41;100.00
57068;BME280;43391;47.448;18.904;2023-10-19T08:59:49;98695.94;;;9.55;100.00
57068;BME280;43391;47.448;18.904;2023-10-19T09:02:14;98691.59;;;9.56;100.00
57068;BME280;43391;47.448;18.904;2023-10-19T09:04:43;98693.25;;;9.57;100.00
57068;BME280;43391;47.448;18.904;2023-10-19T09:07:11;98689.81;;;9.71;100.00
57068;BME280;43391;47.448;18.904;2023-10-19T09:09:36;98681.09;;;9.87;100.00
57068;BME280;43391;47.448;18.904;2023-10-19T09:12:06;98681.25;;;9.98;100.00
57068;BME280;43391;47.448;18.904;2023-10-19T09:14:32;98681.38;;;9.96;100.00
57068;BME280;43391;47.448;18.904;2023-10-19T09:17:08;98678.88;;;9.80;100.00
57068;BME280;43391;47.448;18.904;2023-10-19T09:19:37;98678.81;;;9.82;100.00
57068;BME280;43391;47.448;18.904;2023-10-19T09:22:03;98686.88;;;10.05;100.00
57068;BME280;43391;47.448;18.904;2023-10-19T09:24:46;98682.34;;;10.36;100.00
57068;BME280;43391;47.448;18.904;2023-10-19T09:27:12;98688.38;;;10.36;100.00
57068;BME280;43391;47.448;18.904;2023-10-19T09:29:38;98686.72;;;10.35;100.00
57068;BME280;43391;47.448;18.904;2023-10-19T09:32:03;98686.97;;;10.45;100.00
57068;BME280;43391;47.448;18.904;2023-10-19T09:34:30;98692.13;;;10.60;100.00
57068;BME280;43391;47.448;18.904;2023-10-19T09:37:01;98685.97;;;10.61;100.00
57068;BME280;43391;47.448;18.904;2023-10-19T09:39:28;98689.38;;;11.28;100.00
57068;BME280;43391;47.448;18.904;2023-10-19T09:41:59;98675.78;;;11.24;100.00
57068;BME280;43391;47.448;18.904;2023-10-19T09:44:26;98667.56;;;11.18;100.00
57068;BME280;43391;47.448;18.904;2023-10-19T09:46:56;98672.03;;;11.02;100.00
57068;BME280;43391;47.448;18.904;2023-10-19T09:49:22;98668.41;;;11.05;100.00
57068;BME280;43391;47.448;18.904;2023-10-19T09:51:49;98655.59;;;11.02;100.00
57068;BME280;43391;47.448;18.904;2023-10-19T09:54:23;98653.94;;;11.14;100.00
57068;BME280;43391;47.448;18.904;2023-10-19T09:56:52;98637.13;;;11.33;100.00
57068;BME280;43391;47.448;18.904;2023-10-19T09:59:23;98640.28;;;11.62;100.00
57068;BME280;43391;47.448;18.904;2023-10-19T10:04:38;98631.75;;;11.60;100.00
57068;BME280;43391;47.448;18.904;2023-10-19T10:07:07;98628.97;;;11.50;100.00
57068;BME280;43391;47.448;18.904;2023-10-19T10:09:34;98624.69;;;11.62;100.00
57068;BME280;43391;47.448;18.904;2023-10-19T10:12:20;98620.00;;;11.67;100.00
57068;BME280;43391;47.448;18.904;2023-10-19T10:15:14;98611.69;;;11.62;100.00
57068;BME280;43391;47.448;18.904;2023-10-19T10:17:41;98598.19;;;11.57;100.00
57068;BME280;43391;47.448;18.904;2023-10-19T10:22:44;98596.56;;;11.80;100.00
57068;BME280;43391;47.448;18.904;2023-10-19T10:25:26;98601.22;;;12.13;100.00
57068;BME280;43391;47.448;18.904;2023-10-19T10:27:55;98595.97;;;12.37;100.00
57068;BME280;43391;47.448;18.904;2023-10-19T10:30:20;98603.25;;;12.56;100.00
57068;BME280;43391;47.448;18.904;2023-10-19T10:32:48;98594.88;;;12.64;100.00
57068;BME280;43391;47.448;18.904;2023-10-19T10:38:01;98578.66;;;12.60;100.00
57068;BME280;43391;47.448;18.904;2023-10-19T10:40:27;98586.09;;;12.65;100.00
57068;BME280;43391;47.448;18.904;2023-10-19T10:43:05;98561.38;;;12.59;100.00
57068;BME280;43391;47.448;18.904;2023-10-19T10:45:31;98565.00;;;12.45;100.00
57068;BME280;43391;47.448;18.904;2023-10-19T10:47:56;98560.50;;;12.36;100.00
57068;BME280;43391;47.448;18.904;2023-10-19T10:50:22;98547.56;;;12.23;100.00
57068;BME280;43391;47.448;18.904;2023-10-19T10:52:48;98562.81;;;12.16;100.00
57068;BME280;43391;47.448;18.904;2023-10-19T10:55:14;98556.91;;;12.14;100.00
57068;BME280;43391;47.448;18.904;2023-10-19T10:57:41;98545.09;;;12.21;100.00
57068;BME280;43391;47.448;18.904;2023-10-19T11:00:12;98536.34;;;12.34;100.00
57068;BME280;43391;47.448;18.904;2023-10-19T11:02:41;98536.41;;;12.80;100.00
57068;BME280;43391;47.448;18.904;2023-10-19T11:05:16;98545.97;;;13.36;100.00
57068;BME280;43391;47.448;18.904;2023-10-19T11:10:33;98543.00;;;13.85;100.00
57068;BME280;43391;47.448;18.904;2023-10-19T11:13:10;98542.25;;;13.94;100.00
57068;BME280;43391;47.448;18.904;2023-10-19T11:15:37;98534.72;;;14.13;100.00
57068;BME280;43391;47.448;18.904;2023-10-19T11:18:03;98537.13;;;14.26;98.77
57068;BME280;43391;47.448;18.904;2023-10-19T11:20:29;98525.09;;;14.34;97.45
57068;BME280;43391;47.448;18.904;2023-10-19T11:22:56;98518.75;;;14.27;97.15
57068;BME280;43391;47.448;18.904;2023-10-19T11:25:23;98527.00;;;14.11;97.42
57068;BME280;43391;47.448;18.904;2023-10-19T11:27:49;98528.47;;;14.04;98.50
57068;BME280;43391;47.448;18.904;2023-10-19T11:30:23;98519.63;;;14.16;98.61
57068;BME280;43391;47.448;18.904;2023-10-19T11:32:49;98504.88;;;14.05;98.74
57068;BME280;43391;47.448;18.904;2023-10-19T11:35:18;98491.56;;;14.08;99.21
57068;BME280;43391;47.448;18.904;2023-10-19T11:37:51;98509.34;;;14.15;100.00
57068;BME280;43391;47.448;18.904;2023-10-19T11:40:21;98498.91;;;14.15;98.60
57068;BME280;43391;47.448;18.904;2023-10-19T11:42:47;98490.91;;;14.16;98.83
57068;BME280;43391;47.448;18.904;2023-10-19T11:45:13;98481.28;;;14.07;99.00
57068;BME280;43391;47.448;18.904;2023-10-19T11:47:38;98487.88;;;13.90;99.70
57068;BME280;43391;47.448;18.904;2023-10-19T11:50:04;98489.53;;;13.91;100.00
57068;BME280;43391;47.448;18.904;2023-10-19T11:52:30;98500.66;;;13.93;100.00
57068;BME280;43391;47.448;18.904;2023-10-19T11:54:56;98494.09;;;13.99;100.00
57068;BME280;43391;47.448;18.904;2023-10-19T11:57:21;98492.19;;;14.01;100.00
57068;BME280;43391;47.448;18.904;2023-10-19T11:59:47;98478.75;;;13.84;100.00
57068;BME280;43391;47.448;18.904;2023-10-19T12:02:20;98477.50;;;13.78;100.00
57068;BME280;43391;47.448;18.904;2023-10-19T12:04:46;98480.16;;;13.67;100.00
57068;BME280;43391;47.448;18.904;2023-10-19T12:07:11;98467.94;;;13.67;100.00
57068;BME280;43391;47.448;18.904;2023-10-19T12:09:37;98460.78;;;13.69;100.00
57068;BME280;43391;47.448;18.904;2023-10-19T12:12:02;98450.88;;;13.63;100.00
57068;BME280;43391;47.448;18.904;2023-10-19T12:14:31;98446.63;;;13.62;100.00
57068;BME280;43391;47.448;18.904;2023-10-19T12:16:59;98451.03;;;13.62;100.00
57068;BME280;43391;47.448;18.904;2023-10-19T12:19:27;98440.31;;;13.65;100.00
57068;BME280;43391;47.448;18.904;2023-10-19T12:21:54;98438.22;;;13.59;100.00
57068;BME280;43391;47.448;18.904;2023-10-19T12:24:20;98442.03;;;13.54;100.00
57068;BME280;43391;47.448;18.904;2023-10-19T12:26:46;98442.53;;;13.48;100.00
57068;BME280;43391;47.448;18.904;2023-10-19T12:29:11;98433.66;;;13.39;100.00
57068;BME280;43391;47.448;18.904;2023-10-19T12:31:39;98434.16;;;13.33;100.00
57068;BME280;43391;47.448;18.904;2023-10-19T12:34:06;98432.25;;;13.35;100.00
57068;BME280;43391;47.448;18.904;2023-10-19T12:36:33;98431.16;;;13.38;100.00
57068;BME280;43391;47.448;18.904;2023-10-19T12:39:00;98429.84;;;13.44;100.00
57068;BME280;43391;47.448;18.904;2023-10-19T12:41:26;98432.00;;;13.50;100.00
57068;BME280;43391;47.448;18.904;2023-10-19T12:43:56;98430.34;;;13.49;100.00
57068;BME280;43391;47.448;18.904;2023-10-19T12:46:26;98423.31;;;13.49;100.00
57068;BME280;43391;47.448;18.904;2023-10-19T12:48:53;98416.34;;;13.50;100.00
57068;BME280;43391;47.448;18.904;2023-10-19T12:51:21;98426.03;;;13.59;100.00
57068;BME280;43391;47.448;18.904;2023-10-19T12:53:50;98420.66;;;13.61;100.00
57068;BME280;43391;47.448;18.904;2023-10-19T12:56:20;98420.19;;;13.67;100.00
57068;BME280;43391;47.448;18.904;2023-10-19T12:58:45;98419.47;;;13.65;100.00
57068;BME280;43391;47.448;18.904;2023-10-19T13:01:13;98415.91;;;13.66;100.00
57068;BME280;43391;47.448;18.904;2023-10-19T13:03:43;98399.31;;;13.67;100.00